Time;durP1;ratioP1;P1;durP2;ratioP2;P2;SDS_P1;SDS_P2;PMS_P1;PMS_P2;Temp;Humidity;BMP_temperature;BMP_pressure;BME280_temperature;BME280_humidity;BME280_pressure;Samples;Min_cycle;Max_cycle;Signal;HPM_P1;HPM_P2
2022/08/06 00:00:58;;;;;;;0.60;0.60;;;23.50;99.90;;;;;;5081568;28;20700;-61
2022/08/06 00:03:25;;;;;;;0.68;0.68;;;23.60;99.90;;;;;;5076178;28;20697;-62
2022/08/06 00:05:54;;;;;;;0.63;0.63;;;23.60;99.90;;;;;;5079961;28;20202;-61
2022/08/06 00:08:21;;;;;;;0.50;0.50;;;23.60;99.90;;;;;;5074427;28;20286;-62
2022/08/06 00:10:48;;;;;;;0.73;0.73;;;23.60;99.90;;;;;;5070785;28;20217;-62
2022/08/06 00:13:14;;;;;;;0.40;0.40;;;23.60;99.90;;;;;;5072922;28;20316;-62
2022/08/06 00:15:41;;;;;;;0.60;0.60;;;23.50;99.90;;;;;;5070599;28;20591;-62
2022/08/06 00:18:08;;;;;;;0.60;0.60;;;23.40;99.90;;;;;;5073647;28;20199;-62
2022/08/06 00:20:35;;;;;;;1.13;0.60;;;23.50;99.90;;;;;;5079526;28;20635;-62
2022/08/06 00:23:03;;;;;;;0.60;0.60;;;23.60;99.90;;;;;;5091159;22;20226;-64
2022/08/06 00:25:30;;;;;;;0.45;0.45;;;23.40;99.90;;;;;;5076480;28;20631;-65
2022/08/06 00:27:57;;;;;;;0.60;0.60;;;23.40;99.90;;;;;;5082996;28;20285;-65
2022/08/06 00:30:24;;;;;;;0.60;0.60;;;23.40;99.90;;;;;;5078040;28;20290;-64
2022/08/06 00:32:51;;;;;;;0.50;0.50;;;23.60;99.90;;;;;;5078007;28;20281;-64
2022/08/06 00:35:19;;;;;;;0.50;0.50;;;23.50;99.90;;;;;;5077374;28;20269;-64
2022/08/06 00:37:45;;;;;;;0.70;0.70;;;23.40;99.90;;;;;;5079603;28;20238;-64
2022/08/06 00:40:16;;;;;;;0.68;0.68;;;23.50;99.90;;;;;;5080649;28;20205;-66
2022/08/06 00:42:43;;;;;;;0.68;0.60;;;23.50;99.90;;;;;;5081135;28;20305;-64
2022/08/06 00:45:10;;;;;;;0.47;0.47;;;23.60;99.90;;;;;;5075397;28;20286;-65
2022/08/06 00:47:36;;;;;;;0.43;0.43;;;23.70;99.90;;;;;;5078209;28;20210;-63
2022/08/06 00:50:04;;;;;;;0.40;0.40;;;23.80;99.90;;;;;;5076433;28;20199;-64
2022/08/06 00:52:31;;;;;;;0.60;0.60;;;23.70;99.90;;;;;;5078079;28;20199;-65
2022/08/06 00:54:57;;;;;;;0.65;0.65;;;23.60;99.90;;;;;;5078054;28;20313;-65
2022/08/06 00:57:26;;;;;;;0.80;0.77;;;23.50;99.90;;;;;;5070944;28;20210;-64
2022/08/06 00:59:52;;;;;;;0.80;0.80;;;23.50;99.90;;;;;;5080930;28;20551;-65
2022/08/06 01:02:19;;;;;;;0.70;0.70;;;23.60;99.90;;;;;;5081009;28;20209;-64
2022/08/06 01:04:46;;;;;;;0.70;0.70;;;23.60;99.90;;;;;;5084961;28;20657;-65
2022/08/06 01:07:13;;;;;;;0.50;0.50;;;23.50;99.90;;;;;;5085667;28;20199;-63
2022/08/06 01:09:40;;;;;;;1.10;0.68;;;23.40;99.90;;;;;;5076478;28;20196;-63
2022/08/06 01:12:07;;;;;;;0.80;0.80;;;23.40;99.90;;;;;;5074812;28;20210;-65
2022/08/06 01:14:35;;;;;;;0.70;0.70;;;23.40;99.90;;;;;;5067015;28;20223;-62
2022/08/06 01:17:07;;;;;;;0.70;0.70;;;23.20;99.90;;;;;;5070430;28;20207;-61
2022/08/06 01:19:51;;;;;;;1.08;1.08;;;23.20;99.90;;;;;;5071958;28;20282;-61
2022/08/06 01:22:43;;;;;;;0.73;0.70;;;23.10;99.90;;;;;;5076950;28;20203;-61
2022/08/06 01:25:35;;;;;;;1.02;0.93;;;23.00;99.90;;;;;;5069391;28;20804;-60
2022/08/06 01:28:08;;;;;;;0.70;0.70;;;23.00;99.90;;;;;;5071740;28;20676;-62
2022/08/06 01:30:42;;;;;;;0.63;0.63;;;22.90;99.90;;;;;;5076525;28;20203;-62
2022/08/06 01:33:15;;;;;;;0.70;0.70;;;22.80;99.90;;;;;;5076904;28;20321;-61
2022/08/06 01:35:45;;;;;;;0.60;0.60;;;22.80;99.90;;;;;;5084526;28;20310;-61
2022/08/06 01:38:17;;;;;;;0.60;0.60;;;22.90;99.90;;;;;;5083336;28;20664;-62
2022/08/06 01:40:47;;;;;;;0.70;0.55;;;22.90;99.90;;;;;;5084408;28;20194;-61
2022/08/06 01:43:18;;;;;;;0.70;0.70;;;22.70;99.90;;;;;;5083270;28;20222;-62
2022/08/06 01:45:47;;;;;;;0.68;0.68;;;22.80;99.90;;;;;;5083746;28;20198;-62
2022/08/06 01:48:17;;;;;;;0.55;0.55;;;22.70;99.90;;;;;;5090784;28;20202;-61
2022/08/06 01:50:48;;;;;;;0.60;0.60;;;22.70;99.90;;;;;;5081883;28;20198;-64
2022/08/06 01:53:19;;;;;;;0.70;0.70;;;22.70;99.90;;;;;;5082077;28;20309;-63
2022/08/06 01:55:52;;;;;;;0.60;0.60;;;22.70;99.90;;;;;;5081210;28;20215;-63
2022/08/06 01:58:23;;;;;;;0.75;0.75;;;22.60;99.90;;;;;;5084776;28;20203;-63
2022/08/06 02:00:51;;;;;;;0.60;0.60;;;22.50;99.90;;;;;;5082909;28;20198;-61
2022/08/06 02:03:23;;;;;;;0.60;0.60;;;22.50;99.90;;;;;;5087026;28;20286;-63
2022/08/06 02:05:53;;;;;;;0.75;0.75;;;22.60;99.90;;;;;;5082556;28;20191;-62
2022/08/06 02:08:23;;;;;;;0.52;0.52;;;22.60;99.90;;;;;;5087116;28;20222;-62
2022/08/06 02:10:53;;;;;;;0.50;0.50;;;22.60;99.90;;;;;;5076889;28;20282;-62
2022/08/06 02:13:23;;;;;;;0.60;0.60;;;22.70;99.90;;;;;;5078510;28;20229;-63
2022/08/06 02:15:52;;;;;;;0.60;0.60;;;22.70;99.90;;;;;;5077043;28;20305;-62
2022/08/06 02:18:23;;;;;;;0.57;0.57;;;22.70;99.90;;;;;;5076892;28;20290;-63
2022/08/06 02:20:55;;;;;;;0.70;0.70;;;22.60;99.90;;;;;;5075498;28;20211;-61
2022/08/06 02:23:25;;;;;;;0.38;0.38;;;22.50;99.90;;;;;;5083475;28;20230;-61
2022/08/06 02:25:55;;;;;;;3.90;0.82;;;22.50;99.90;;;;;;5087160;28;20218;-62
2022/08/06 02:28:25;;;;;;;0.60;0.60;;;22.50;99.90;;;;;;5105373;28;20262;-62
2022/08/06 02:30:54;;;;;;;0.68;0.68;;;22.50;99.90;;;;;;5092644;28;20285;-62
2022/08/06 02:33:22;;;;;;;0.45;0.45;;;22.50;99.90;;;;;;5087547;28;20731;-63
2022/08/06 02:35:51;;;;;;;0.90;0.80;;;22.50;99.90;;;;;;5075973;28;20285;-62
2022/08/06 02:38:23;;;;;;;0.50;0.50;;;22.30;99.90;;;;;;5090658;28;20215;-61
2022/08/06 02:40:56;;;;;;;0.70;0.70;;;22.40;99.90;;;;;;5076340;28;20199;-61
2022/08/06 02:43:29;;;;;;;0.60;0.60;;;22.40;99.90;;;;;;5089650;28;20750;-62
2022/08/06 02:46:01;;;;;;;0.60;0.60;;;22.40;99.90;;;;;;5089630;28;20183;-63
2022/08/06 02:48:34;;;;;;;0.80;0.80;;;22.40;99.90;;;;;;5088601;28;20231;-63
2022/08/06 02:51:11;;;;;;;0.57;0.57;;;22.40;99.90;;;;;;5089017;28;20629;-62
2022/08/06 02:53:44;;;;;;;0.60;0.60;;;22.30;99.90;;;;;;5094608;28;20297;-62
2022/08/06 02:56:14;;;;;;;0.60;0.60;;;22.20;99.90;;;;;;5088725;28;20301;-62
2022/08/06 02:58:45;;;;;;;0.50;0.50;;;22.10;99.90;;;;;;5086157;28;20759;-61
2022/08/06 03:01:16;;;;;;;0.68;0.60;;;22.10;99.90;;;;;;5089054;28;20202;-63
2022/08/06 03:03:47;;;;;;;0.90;0.60;;;22.10;99.90;;;;;;5089044;28;20264;-62
2022/08/06 03:06:16;;;;;;;0.70;0.70;;;22.10;99.90;;;;;;5084016;28;20188;-62
2022/08/06 03:08:44;;;;;;;0.60;0.60;;;22.10;99.90;;;;;;5087664;28;20291;-62
2022/08/06 03:11:12;;;;;;;0.70;0.70;;;22.10;99.90;;;;;;5089546;28;20297;-61
2022/08/06 03:13:40;;;;;;;0.50;0.50;;;22.00;99.90;;;;;;5083664;28;20222;-63
2022/08/06 03:16:09;;;;;;;0.60;0.60;;;21.90;99.90;;;;;;5088138;28;20588;-62
2022/08/06 03:18:37;;;;;;;0.60;0.60;;;21.80;99.90;;;;;;5084655;28;20209;-61
2022/08/06 03:21:06;;;;;;;0.60;0.60;;;21.90;99.90;;;;;;5081906;28;20290;-63
2022/08/06 03:23:34;;;;;;;0.68;0.68;;;21.70;99.90;;;;;;5088711;28;20760;-62
2022/08/06 03:26:02;;;;;;;0.50;0.50;;;21.70;99.90;;;;;;5082767;28;20201;-61
2022/08/06 03:28:31;;;;;;;0.55;0.55;;;21.60;99.90;;;;;;5090317;28;20297;-63
2022/08/06 03:30:58;;;;;;;0.50;0.50;;;21.60;99.90;;;;;;5082612;28;20203;-60
2022/08/06 03:33:27;;;;;;;0.50;0.50;;;21.50;99.90;;;;;;5091247;28;20226;-61
2022/08/06 03:35:56;;;;;;;1.48;0.73;;;21.40;99.90;;;;;;5081821;28;20223;-62
2022/08/06 03:38:25;;;;;;;0.50;0.50;;;21.40;99.90;;;;;;5078963;28;20218;-60
2022/08/06 03:40:53;;;;;;;0.43;0.43;;;21.40;99.90;;;;;;5088743;28;20230;-61
2022/08/06 03:43:21;;;;;;;0.68;0.68;;;21.30;99.90;;;;;;5078819;28;20227;-63
2022/08/06 03:45:53;;;;;;;0.40;0.40;;;21.20;99.90;;;;;;5090425;28;20282;-63
2022/08/06 03:48:24;;;;;;;0.30;0.30;;;21.20;99.90;;;;;;5079391;28;20233;-63
2022/08/06 03:50:55;;;;;;;0.80;0.80;;;21.10;99.90;;;;;;5089733;28;20199;-63
2022/08/06 03:53:25;;;;;;;0.52;0.52;;;21.00;99.90;;;;;;5092781;28;20772;-62
2022/08/06 03:55:55;;;;;;;0.80;0.75;;;21.00;99.90;;;;;;5077972;28;20277;-60
2022/08/06 03:58:24;;;;;;;0.57;0.57;;;21.00;99.90;;;;;;5090204;28;20293;-61
2022/08/06 04:00:54;;;;;;;0.60;0.60;;;21.00;99.90;;;;;;5090533;28;20226;-61
2022/08/06 04:03:22;;;;;;;0.60;0.60;;;21.00;99.90;;;;;;5093114;28;20219;-61
2022/08/06 04:05:50;;;;;;;0.40;0.40;;;20.90;99.90;;;;;;5076463;28;20198;-63
2022/08/06 04:08:20;;;;;;;0.70;0.70;;;21.00;99.90;;;;;;5074002;28;20302;-61
2022/08/06 04:10:49;;;;;;;0.40;0.40;;;21.10;99.90;;;;;;5076857;28;20224;-62
2022/08/06 04:13:17;;;;;;;0.70;0.70;;;21.00;99.90;;;;;;5073789;28;20310;-63
2022/08/06 04:15:45;;;;;;;0.70;0.70;;;21.00;99.90;;;;;;5078004;28;20313;-62
2022/08/06 04:18:15;;;;;;;0.57;0.57;;;21.00;99.90;;;;;;5075150;28;20286;-62
2022/08/06 04:20:46;;;;;;;0.60;0.60;;;21.00;99.90;;;;;;5080194;28;20227;-62
2022/08/06 04:23:14;;;;;;;0.60;0.60;;;20.90;99.90;;;;;;5085956;28;20234;-62
2022/08/06 04:25:45;;;;;;;0.95;0.70;;;20.90;99.90;;;;;;5082666;28;20202;-63
2022/08/06 04:28:14;;;;;;;0.40;0.40;;;20.90;99.90;;;;;;5081756;28;20215;-64
2022/08/06 04:30:42;;;;;;;0.55;0.55;;;20.90;99.90;;;;;;5081318;28;20200;-61
2022/08/06 04:33:14;;;;;;;0.50;0.50;;;20.90;99.90;;;;;;5068501;28;20298;-62
2022/08/06 04:35:42;;;;;;;0.60;0.60;;;20.90;99.90;;;;;;5071952;28;20694;-61
2022/08/06 04:38:10;;;;;;;0.70;0.70;;;21.00;99.90;;;;;;5071306;28;20644;-62
2022/08/06 04:40:38;;;;;;;0.70;0.70;;;20.90;99.90;;;;;;5074585;28;20214;-61
2022/08/06 04:43:08;;;;;;;0.73;0.73;;;20.90;99.90;;;;;;5075432;28;20215;-62
2022/08/06 04:45:36;;;;;;;0.55;0.55;;;20.80;99.90;;;;;;5079561;28;20635;-62
2022/08/06 04:48:06;;;;;;;0.60;0.60;;;20.80;99.90;;;;;;5077686;28;20848;-62
2022/08/06 04:50:33;;;;;;;0.57;0.57;;;20.70;99.90;;;;;;5081543;28;20286;-62
2022/08/06 04:53:07;;;;;;;0.52;0.52;;;20.70;99.90;;;;;;5079150;28;20760;-62
2022/08/06 04:55:35;;;;;;;0.70;0.70;;;20.70;99.90;;;;;;5081776;28;20771;-62
2022/08/06 04:58:03;;;;;;;0.60;0.60;;;20.70;99.90;;;;;;5081207;28;20202;-63
2022/08/06 05:00:31;;;;;;;0.60;0.60;;;20.80;99.90;;;;;;5074880;28;20558;-61
2022/08/06 05:02:58;;;;;;;0.47;0.47;;;20.70;99.90;;;;;;5083327;28;20214;-61
2022/08/06 05:05:26;;;;;;;0.80;0.73;;;20.70;99.90;;;;;;5072825;28;20676;-62
2022/08/06 05:07:55;;;;;;;0.80;0.80;;;20.70;99.90;;;;;;5084072;28;20220;-62
2022/08/06 05:10:25;;;;;;;0.70;0.70;;;20.70;99.90;;;;;;5070377;28;20229;-63
2022/08/06 05:12:56;;;;;;;0.55;0.55;;;20.60;99.90;;;;;;5065960;28;20202;-63
2022/08/06 05:15:27;;;;;;;0.73;0.73;;;20.70;99.90;;;;;;5077970;28;20238;-62
2022/08/06 05:17:58;;;;;;;0.57;0.57;;;20.80;99.90;;;;;;5077325;28;20203;-62
2022/08/06 05:20:27;;;;;;;0.70;0.70;;;20.90;99.90;;;;;;5074699;28;20203;-62
2022/08/06 05:22:58;;;;;;;0.65;0.60;;;21.00;99.90;;;;;;5061473;28;20207;-63
2022/08/06 05:25:26;;;;;;;0.70;0.70;;;21.00;99.90;;;;;;5072947;28;20689;-63
2022/08/06 05:27:53;;;;;;;0.70;0.70;;;21.10;99.90;;;;;;5074039;28;20929;-62
2022/08/06 05:30:21;;;;;;;0.70;0.70;;;21.20;99.90;;;;;;5081667;28;20293;-61
2022/08/06 05:32:49;;;;;;;0.60;0.60;;;21.40;99.90;;;;;;5075582;28;20273;-64
2022/08/06 05:35:18;;;;;;;1.10;0.80;;;21.40;99.90;;;;;;5071598;28;20265;-64
2022/08/06 05:37:45;;;;;;;0.50;0.50;;;21.50;99.90;;;;;;5079368;28;20286;-64
2022/08/06 05:40:12;;;;;;;1.85;0.57;;;21.50;99.90;;;;;;5079100;28;20302;-64
2022/08/06 05:42:39;;;;;;;0.60;0.60;;;21.70;99.90;;;;;;5080547;28;20203;-64
2022/08/06 05:45:09;;;;;;;0.85;0.85;;;21.60;99.90;;;;;;5074470;28;20233;-65
2022/08/06 05:47:38;;;;;;;0.70;0.70;;;21.60;99.90;;;;;;5082169;28;20254;-68
2022/08/06 05:50:08;;;;;;;0.57;0.57;;;21.60;99.90;;;;;;5077633;28;20200;-68
2022/08/06 05:52:43;;;;;;;1.60;0.88;;;21.50;99.90;;;;;;5083878;28;20689;-70
2022/08/06 05:55:16;;;;;;;0.80;0.80;;;21.40;99.90;;;;;;5073567;28;20231;-69
2022/08/06 05:57:48;;;;;;;0.70;0.70;;;21.50;99.90;;;;;;5094685;28;20195;-68
2022/08/06 06:00:18;;;;;;;1.35;0.82;;;21.50;99.90;;;;;;5085700;28;20200;-70
2022/08/06 06:02:47;;;;;;;0.65;0.65;;;21.50;99.90;;;;;;5084024;28;20210;-69
2022/08/06 06:05:15;;;;;;;0.68;0.68;;;21.60;99.90;;;;;;5078076;28;20235;-67
2022/08/06 06:07:44;;;;;;;0.70;0.70;;;21.60;99.90;;;;;;5075979;28;20252;-68
2022/08/06 06:10:12;;;;;;;0.95;0.70;;;21.60;99.90;;;;;;5080221;28;20562;-68
2022/08/06 06:12:41;;;;;;;0.85;0.85;;;21.80;99.90;;;;;;5074179;28;20210;-68
2022/08/06 06:15:11;;;;;;;0.68;0.68;;;22.00;99.90;;;;;;5084793;28;20850;-69
2022/08/06 06:18:06;;;;;;;0.60;0.60;;;22.00;99.90;;;;;;5080455;28;20698;-67
2022/08/06 06:20:43;;;;;;;0.70;0.70;;;22.10;99.90;;;;;;5077862;28;20207;-70
2022/08/06 06:23:16;;;;;;;0.68;0.68;;;22.10;99.90;;;;;;5076888;28;20345;-67
2022/08/06 06:25:53;;;;;;;0.80;0.80;;;22.20;99.90;;;;;;5064474;28;20258;-67
2022/08/06 06:28:27;;;;;;;0.80;0.80;;;22.30;99.90;;;;;;5065011;28;20200;-69
2022/08/06 06:30:58;;;;;;;0.60;0.60;;;22.40;99.90;;;;;;5063377;28;20286;-68
2022/08/06 06:33:40;;;;;;;0.60;0.60;;;22.50;99.90;;;;;;5061706;28;20224;-70
2022/08/06 06:36:17;;;;;;;1.10;0.90;;;22.50;99.90;;;;;;5085678;22;20247;-58
2022/08/06 06:38:53;;;;;;;0.70;0.70;;;22.50;99.90;;;;;;5069607;28;20234;-59
2022/08/06 06:41:30;;;;;;;0.70;0.70;;;22.50;99.90;;;;;;5068194;28;20260;-59
2022/08/06 06:44:05;;;;;;;0.70;0.70;;;22.50;99.90;;;;;;5070884;28;20199;-59
2022/08/06 06:46:35;;;;;;;0.63;0.63;;;22.60;99.90;;;;;;5065926;28;20225;-59
2022/08/06 06:49:08;;;;;;;0.75;0.75;;;22.60;99.90;;;;;;5063667;28;20208;-58
2022/08/06 06:51:41;;;;;;;0.80;0.80;;;22.70;99.90;;;;;;5066013;28;20225;-58
2022/08/06 06:54:12;;;;;;;0.85;0.80;;;22.70;99.90;;;;;;5059166;28;20667;-59
2022/08/06 06:56:45;;;;;;;0.85;0.85;;;22.70;99.90;;;;;;5059031;28;20250;-58
2022/08/06 06:59:16;;;;;;;0.90;0.90;;;22.60;99.90;;;;;;5055128;28;20210;-60
2022/08/06 07:01:44;;;;;;;1.02;0.95;;;22.60;99.90;;;;;;5056743;28;20287;-58
2022/08/06 07:04:15;;;;;;;0.98;0.98;;;22.70;99.90;;;;;;5057941;28;20247;-57
2022/08/06 07:06:46;;;;;;;0.80;0.80;;;22.70;99.90;;;;;;5057209;28;20307;-60
2022/08/06 07:09:20;;;;;;;1.05;0.98;;;22.70;99.90;;;;;;5052280;28;20204;-59
2022/08/06 07:11:48;;;;;;;1.17;0.85;;;22.60;99.90;;;;;;5052196;28;20205;-60
2022/08/06 07:14:15;;;;;;;0.80;0.80;;;22.50;99.90;;;;;;5052074;28;20286;-60
2022/08/06 07:16:44;;;;;;;0.90;0.90;;;22.50;99.90;;;;;;5049091;28;20255;-62
2022/08/06 07:19:12;;;;;;;0.70;0.70;;;22.60;99.90;;;;;;5052652;28;20211;-60
2022/08/06 07:21:42;;;;;;;0.80;0.80;;;22.70;99.90;;;;;;5052701;28;20666;-63
2022/08/06 07:24:11;;;;;;;0.70;0.70;;;23.00;99.90;;;;;;5053365;28;20204;-60
2022/08/06 07:26:42;;;;;;;0.80;0.80;;;23.10;99.90;;;;;;5054869;28;20314;-62
2022/08/06 07:29:10;;;;;;;1.05;1.00;;;23.10;99.90;;;;;;5055425;28;20569;-61
2022/08/06 07:31:38;;;;;;;0.70;0.70;;;23.10;99.90;;;;;;5055350;28;20200;-61
2022/08/06 07:34:06;;;;;;;0.75;0.70;;;23.00;99.90;;;;;;5055160;28;20291;-61
2022/08/06 07:36:36;;;;;;;0.80;0.80;;;23.20;99.90;;;;;;5055484;28;20228;-61
2022/08/06 07:39:07;;;;;;;0.93;0.93;;;23.10;99.90;;;;;;5058088;28;20222;-61
2022/08/06 07:41:35;;;;;;;1.00;0.90;;;23.10;99.90;;;;;;5052659;28;20207;-60
2022/08/06 07:44:06;;;;;;;0.70;0.70;;;23.30;99.90;;;;;;5054505;28;20254;-61
2022/08/06 07:46:41;;;;;;;1.20;1.10;;;23.40;99.90;;;;;;5049988;28;20295;-60
2022/08/06 07:49:11;;;;;;;0.80;0.80;;;23.60;99.90;;;;;;5057725;28;20620;-61
2022/08/06 07:51:41;;;;;;;0.80;0.80;;;23.60;99.90;;;;;;5049709;28;20197;-61
2022/08/06 07:54:09;;;;;;;0.80;0.80;;;23.60;99.90;;;;;;5055864;28;20198;-61
2022/08/06 07:56:38;;;;;;;0.80;0.80;;;23.80;99.90;;;;;;5058392;28;20310;-62
2022/08/06 07:59:08;;;;;;;1.10;1.00;;;23.80;99.90;;;;;;5059201;28;20203;-63
2022/08/06 08:01:36;;;;;;;0.90;0.90;;;23.80;99.90;;;;;;5060304;28;20253;-62
2022/08/06 08:06:48;;;;;;;1.55;0.93;;;23.70;99.90;;;;;;5062305;28;20308;-62
2022/08/06 08:09:17;;;;;;;1.42;0.80;;;23.60;99.90;;;;;;5055139;28;20211;-62
2022/08/06 08:11:46;;;;;;;0.90;0.90;;;23.40;99.90;;;;;;5063567;28;20371;-62
2022/08/06 08:14:17;;;;;;;0.85;0.85;;;23.40;99.90;;;;;;5057865;28;20200;-61
2022/08/06 08:16:44;;;;;;;0.80;0.80;;;23.50;99.90;;;;;;5062252;28;20238;-62
2022/08/06 08:19:26;;;;;;;0.90;0.90;;;23.50;99.90;;;;;;5059009;28;20278;-60
2022/08/06 08:21:56;;;;;;;0.80;0.77;;;23.60;99.90;;;;;;5052223;28;20581;-60
2022/08/06 08:24:23;;;;;;;0.60;0.60;;;23.70;99.90;;;;;;5058753;28;20242;-61
2022/08/06 08:26:50;;;;;;;0.80;0.80;;;23.90;99.90;;;;;;5056660;28;20306;-61
2022/08/06 08:29:18;;;;;;;0.80;0.80;;;24.10;99.90;;;;;;5059497;28;20265;-60
2022/08/06 08:31:45;;;;;;;0.80;0.80;;;24.40;99.90;;;;;;5057097;28;20217;-60
2022/08/06 08:34:12;;;;;;;0.80;0.80;;;24.60;99.90;;;;;;5056709;28;20199;-61
2022/08/06 08:36:39;;;;;;;0.70;0.70;;;24.80;99.90;;;;;;5051326;28;20324;-61
2022/08/06 08:39:06;;;;;;;0.70;0.70;;;25.00;99.90;;;;;;5056679;28;20744;-61
2022/08/06 08:41:35;;;;;;;1.40;0.93;;;25.00;99.90;;;;;;5058374;28;20295;-60
2022/08/06 08:44:05;;;;;;;0.80;0.80;;;24.80;99.90;;;;;;5055246;28;20319;-61
2022/08/06 08:46:35;;;;;;;0.60;0.60;;;24.70;99.90;;;;;;5053570;28;20243;-63
2022/08/06 08:49:04;;;;;;;1.38;0.80;;;24.90;99.90;;;;;;5063787;28;20267;-61
2022/08/06 08:51:33;;;;;;;1.35;0.70;;;24.90;99.90;;;;;;5060444;28;20204;-60
2022/08/06 08:54:01;;;;;;;0.52;0.52;;;24.80;99.90;;;;;;5067592;28;20700;-60
2022/08/06 08:56:28;;;;;;;0.80;0.70;;;24.80;99.90;;;;;;5058497;28;20227;-60
2022/08/06 08:58:56;;;;;;;0.65;0.65;;;24.80;99.90;;;;;;5053050;28;20199;-61
2022/08/06 09:01:23;;;;;;;0.70;0.60;;;24.80;99.90;;;;;;5055767;28;20287;-60
2022/08/06 09:03:51;;;;;;;0.70;0.70;;;24.60;99.90;;;;;;5064885;28;20286;-61
2022/08/06 09:06:19;;;;;;;0.93;0.93;;;24.50;99.90;;;;;;5053814;28;20230;-61
2022/08/06 09:08:47;;;;;;;0.75;0.70;;;24.60;99.90;;;;;;5063128;28;20208;-61
2022/08/06 09:11:15;;;;;;;1.33;0.60;;;24.80;99.90;;;;;;5063993;28;20211;-61
2022/08/06 09:13:42;;;;;;;0.70;0.70;;;24.70;99.90;;;;;;5049897;28;20201;-60
2022/08/06 09:16:09;;;;;;;0.80;0.80;;;24.80;99.90;;;;;;5048817;28;20220;-61
2022/08/06 09:18:36;;;;;;;0.70;0.70;;;25.10;99.90;;;;;;5061527;28;20639;-61
2022/08/06 09:21:05;;;;;;;0.70;0.60;;;25.00;99.90;;;;;;5062131;28;20357;-61
2022/08/06 09:23:32;;;;;;;0.70;0.70;;;24.90;99.90;;;;;;5051967;28;20204;-61
2022/08/06 09:26:05;;;;;;;0.60;0.60;;;25.00;99.90;;;;;;5056884;28;20347;-61
2022/08/06 09:28:35;;;;;;;0.70;0.70;;;25.10;99.90;;;;;;5053267;28;20224;-61
2022/08/06 09:31:05;;;;;;;0.70;0.70;;;25.10;99.90;;;;;;5064615;28;20199;-60
2022/08/06 09:33:35;;;;;;;0.60;0.60;;;25.20;99.90;;;;;;5060413;28;20200;-60
2022/08/06 09:36:06;;;;;;;1.35;0.95;;;25.30;99.90;;;;;;5063633;28;20254;-60
2022/08/06 09:38:46;;;;;;;0.80;0.80;;;25.10;99.90;;;;;;5065926;28;20227;-60
2022/08/06 09:41:13;;;;;;;1.73;0.85;;;25.00;99.90;;;;;;5057651;28;20727;-60
2022/08/06 09:43:41;;;;;;;0.60;0.60;;;24.80;99.90;;;;;;5061290;28;20200;-60
2022/08/06 09:46:08;;;;;;;0.80;0.80;;;24.80;99.90;;;;;;5054063;28;20310;-60
2022/08/06 09:48:35;;;;;;;0.68;0.68;;;24.80;99.90;;;;;;5062538;28;20661;-60
2022/08/06 09:51:03;;;;;;;0.63;0.63;;;25.00;99.90;;;;;;5062119;28;20298;-60
2022/08/06 09:53:31;;;;;;;1.38;0.70;;;25.50;99.90;;;;;;5059436;28;20642;-60
2022/08/06 09:55:59;;;;;;;0.63;0.55;;;25.80;99.90;;;;;;5063936;28;20314;-60
2022/08/06 09:58:35;;;;;;;1.40;0.50;;;25.80;99.90;;;;;;5053313;28;20226;-60
2022/08/06 10:01:15;;;;;;;0.60;0.60;;;25.80;99.90;;;;;;5057420;28;20195;-60
2022/08/06 10:03:42;;;;;;;0.77;0.77;;;25.80;99.90;;;;;;5045140;28;20203;-60
2022/08/06 10:06:11;;;;;;;5.03;0.80;;;26.10;99.90;;;;;;5048756;28;20222;-60
2022/08/06 10:08:40;;;;;;;0.70;0.70;;;26.30;99.90;;;;;;5055798;28;20203;-60
2022/08/06 10:11:08;;;;;;;0.82;0.82;;;26.20;99.90;;;;;;5057639;28;20284;-60
2022/08/06 10:13:37;;;;;;;1.20;0.80;;;26.40;99.90;;;;;;5058831;28;20219;-61
2022/08/06 10:16:17;;;;;;;0.50;0.50;;;26.40;99.90;;;;;;5071421;28;20223;-60
2022/08/06 10:18:46;;;;;;;0.55;0.55;;;26.40;99.90;;;;;;5068650;28;20287;-60
2022/08/06 10:21:15;;;;;;;3.80;0.70;;;26.70;99.90;;;;;;5062709;28;20265;-60
2022/08/06 10:23:46;;;;;;;0.60;0.60;;;27.00;99.90;;;;;;5060000;28;20665;-61
2022/08/06 10:26:18;;;;;;;0.52;0.52;;;26.90;99.90;;;;;;5062973;28;20254;-60
2022/08/06 10:28:46;;;;;;;0.70;0.70;;;26.50;99.90;;;;;;5064300;28;20196;-60
2022/08/06 10:31:15;;;;;;;0.70;0.60;;;26.40;99.90;;;;;;5065210;28;20235;-60
2022/08/06 10:33:48;;;;;;;1.15;0.73;;;26.60;99.90;;;;;;5064198;28;20200;-60
2022/08/06 10:36:16;;;;;;;0.93;0.88;;;26.70;99.90;;;;;;5065275;28;20772;-60
2022/08/06 10:38:46;;;;;;;0.40;0.40;;;26.40;99.90;;;;;;5068252;28;20754;-60
2022/08/06 10:41:14;;;;;;;0.63;0.63;;;26.20;99.90;;;;;;5068474;28;20203;-60
2022/08/06 10:43:42;;;;;;;0.63;0.50;;;26.10;99.90;;;;;;5065646;28;20223;-60
2022/08/06 10:46:12;;;;;;;0.77;0.75;;;26.40;99.90;;;;;;5065675;28;20223;-61
2022/08/06 10:48:42;;;;;;;0.98;0.40;;;26.50;99.90;;;;;;5060461;28;20199;-60
2022/08/06 10:51:10;;;;;;;0.70;0.70;;;26.30;99.90;;;;;;5057547;28;20232;-60
2022/08/06 10:53:38;;;;;;;0.63;0.63;;;26.20;99.90;;;;;;5064101;28;20196;-60
2022/08/06 10:56:09;;;;;;;0.50;0.50;;;26.20;99.90;;;;;;5062516;28;20223;-60
2022/08/06 10:58:38;;;;;;;0.90;0.60;;;26.20;99.90;;;;;;5064391;28;20247;-60
2022/08/06 11:01:08;;;;;;;0.73;0.73;;;26.10;99.90;;;;;;5065511;28;20265;-60
2022/08/06 11:03:45;;;;;;;0.70;0.70;;;26.00;99.90;;;;;;5067276;28;20203;-60
2022/08/06 11:06:56;;;;;;;0.70;0.70;;;25.80;99.90;;;;;;5067065;28;20311;-60
2022/08/06 11:09:48;;;;;;;0.65;0.47;;;25.80;99.90;;;;;;5029746;28;20547;-60
2022/08/06 11:12:29;;;;;;;0.60;0.60;;;25.90;99.90;;;;;;5058247;28;20203;-61
2022/08/06 11:14:57;;;;;;;0.60;0.60;;;26.30;99.90;;;;;;5062284;28;20608;-61
2022/08/06 11:17:24;;;;;;;0.68;0.68;;;26.30;99.90;;;;;;5062773;28;20219;-61
2022/08/06 11:19:51;;;;;;;0.65;0.65;;;26.20;99.90;;;;;;5068110;28;20686;-61
2022/08/06 11:22:35;;;;;;;0.60;0.60;;;26.20;99.90;;;;;;5061699;28;20323;-61
2022/08/06 11:25:03;;;;;;;0.65;0.65;;;26.20;99.90;;;;;;5065562;28;20259;-62
2022/08/06 11:27:52;;;;;;;0.60;0.60;;;26.20;99.90;;;;;;5065403;28;20200;-61
2022/08/06 11:30:20;;;;;;;0.70;0.70;;;26.10;99.90;;;;;;5065440;28;20238;-60
2022/08/06 11:32:49;;;;;;;0.60;0.60;;;26.20;99.90;;;;;;5061682;28;20327;-61
2022/08/06 11:35:48;;;;;;;1.10;0.55;;;26.30;99.90;;;;;;5063235;28;20358;-61
2022/08/06 11:38:16;;;;;;;0.90;0.80;;;26.50;99.90;;;;;;5054372;28;20606;-62
2022/08/06 11:40:57;;;;;;;2.53;0.68;;;26.60;99.90;;;;;;5055197;28;20200;-62
2022/08/06 11:43:46;;;;;;;0.45;0.45;;;26.50;99.90;;;;;;5053989;28;20202;-61
2022/08/06 11:46:23;;;;;;;0.63;0.63;;;26.50;99.90;;;;;;5054250;28;20270;-61
2022/08/06 11:49:16;;;;;;;0.60;0.60;;;26.80;99.90;;;;;;5067638;28;20196;-61
2022/08/06 11:51:45;;;;;;;0.50;0.50;;;27.30;99.90;;;;;;5056697;28;20196;-60
2022/08/06 11:54:14;;;;;;;0.60;0.60;;;27.60;99.90;;;;;;5070735;28;20204;-63
2022/08/06 11:57:14;;;;;;;0.73;0.73;;;27.50;99.90;;;;;;5062411;28;20227;-60
2022/08/06 11:59:48;;;;;;;0.63;0.63;;;27.30;99.90;;;;;;5056142;28;20196;-60
2022/08/06 12:02:17;;;;;;;0.75;0.75;;;27.30;99.90;;;;;;5065792;28;20199;-60
2022/08/06 12:04:46;;;;;;;1.85;1.00;;;27.50;99.90;;;;;;5061056;28;20223;-61
2022/08/06 12:07:18;;;;;;;0.63;0.63;;;27.60;99.90;;;;;;5064421;28;20678;-60
2022/08/06 12:09:45;;;;;;;0.73;0.73;;;27.60;99.90;;;;;;5063466;28;20204;-60
2022/08/06 12:12:36;;;;;;;0.45;0.45;;;27.50;99.90;;;;;;5064858;28;20231;-60
2022/08/06 12:15:37;;;;;;;0.60;0.60;;;27.50;99.90;;;;;;5060361;28;20227;-61
2022/08/06 12:18:05;;;;;;;0.95;0.60;;;27.40;99.80;;;;;;5057353;28;20216;-61
2022/08/06 12:20:34;;;;;;;0.60;0.60;;;27.40;99.90;;;;;;5065289;28;20677;-61
2022/08/06 12:23:03;;;;;;;1.15;0.70;;;27.80;99.90;;;;;;5059350;28;20232;-62
2022/08/06 12:25:34;;;;;;;0.60;0.60;;;27.80;99.80;;;;;;5061853;28;20657;-61
2022/08/06 12:28:01;;;;;;;0.47;0.47;;;27.80;99.50;;;;;;5057022;28;20196;-61
2022/08/06 12:30:28;;;;;;;0.70;0.70;;;28.10;99.30;;;;;;5066648;28;20199;-60
2022/08/06 12:33:01;;;;;;;0.75;0.75;;;28.10;98.90;;;;;;5062465;28;20282;-61
2022/08/06 12:35:29;;;;;;;1.60;0.90;;;28.00;99.50;;;;;;5049137;28;21077;-61
2022/08/06 12:37:56;;;;;;;0.68;0.68;;;27.90;99.10;;;;;;5034278;28;20247;-62
2022/08/06 12:40:27;;;;;;;1.02;0.80;;;27.80;98.70;;;;;;5044449;28;20283;-61
2022/08/06 12:43:08;;;;;;;0.88;0.57;;;27.80;99.00;;;;;;5032843;28;20200;-60
2022/08/06 12:45:35;;;;;;;0.50;0.50;;;27.80;99.10;;;;;;5050492;28;20220;-60
2022/08/06 12:48:05;;;;;;;0.60;0.60;;;27.80;99.20;;;;;;5052656;28;20315;-62
2022/08/06 12:50:35;;;;;;;0.80;0.80;;;27.70;98.80;;;;;;5057926;28;20295;-62
2022/08/06 12:53:05;;;;;;;0.55;0.55;;;27.60;98.80;;;;;;5064540;28;20235;-62
2022/08/06 12:55:35;;;;;;;0.90;0.60;;;27.60;98.60;;;;;;5064665;28;20215;-62
2022/08/06 12:58:02;;;;;;;1.55;0.80;;;27.60;98.60;;;;;;5058514;28;20732;-60
2022/08/06 13:00:30;;;;;;;0.80;0.80;;;27.60;98.60;;;;;;5050690;28;20227;-62
2022/08/06 13:02:58;;;;;;;0.80;0.80;;;27.60;98.70;;;;;;5053774;28;20218;-61
2022/08/06 13:05:27;;;;;;;0.50;0.50;;;27.70;98.50;;;;;;5046412;28;20230;-60
2022/08/06 13:07:57;;;;;;;0.95;0.80;;;27.70;99.00;;;;;;5050202;28;20207;-62